sensor_id;sensor_type;location;lat;lon;timestamp;P1;durP1;ratioP1;P2;durP2;ratioP2
20776;SDS011;10548;47.504;8.248;2022-10-18T00:00:46;23.37;;;12.27;;
20776;SDS011;10548;47.504;8.248;2022-10-18T00:03:14;18.57;;;8.73;;
20776;SDS011;10548;47.504;8.248;2022-10-18T00:05:41;25.93;;;10.50;;
20776;SDS011;10548;47.504;8.248;2022-10-18T00:08:08;16.07;;;9.23;;
20776;SDS011;10548;47.504;8.248;2022-10-18T00:10:35;29.87;;;12.43;;
20776;SDS011;10548;47.504;8.248;2022-10-18T00:13:03;40.60;;;14.13;;
20776;SDS011;10548;47.504;8.248;2022-10-18T00:15:30;36.37;;;15.43;;
20776;SDS011;10548;47.504;8.248;2022-10-18T00:17:58;38.73;;;16.70;;
20776;SDS011;10548;47.504;8.248;2022-10-18T00:20:26;29.33;;;15.20;;
20776;SDS011;10548;47.504;8.248;2022-10-18T00:22:53;43.50;;;19.47;;
20776;SDS011;10548;47.504;8.248;2022-10-18T00:25:21;86.30;;;22.00;;
20776;SDS011;10548;47.504;8.248;2022-10-18T00:27:48;221.53;;;31.47;;
20776;SDS011;10548;47.504;8.248;2022-10-18T00:30:15;211.67;;;33.83;;
20776;SDS011;10548;47.504;8.248;2022-10-18T00:32:43;240.17;;;25.67;;
20776;SDS011;10548;47.504;8.248;2022-10-18T00:35:10;135.80;;;25.33;;
20776;SDS011;10548;47.504;8.248;2022-10-18T00:37:37;116.30;;;23.80;;
20776;SDS011;10548;47.504;8.248;2022-10-18T00:40:05;219.87;;;30.53;;
20776;SDS011;10548;47.504;8.248;2022-10-18T00:42:33;177.93;;;29.17;;
20776;SDS011;10548;47.504;8.248;2022-10-18T00:45:21;152.73;;;35.53;;
20776;SDS011;10548;47.504;8.248;2022-10-18T00:47:55;55.50;;;20.80;;
20776;SDS011;10548;47.504;8.248;2022-10-18T00:50:25;30.67;;;18.87;;
20776;SDS011;10548;47.504;8.248;2022-10-18T00:52:55;30.67;;;15.93;;
20776;SDS011;10548;47.504;8.248;2022-10-18T00:55:25;56.17;;;17.30;;
20776;SDS011;10548;47.504;8.248;2022-10-18T00:57:53;45.47;;;20.27;;
20776;SDS011;10548;47.504;8.248;2022-10-18T01:00:21;25.63;;;16.60;;
20776;SDS011;10548;47.504;8.248;2022-10-18T01:02:49;25.53;;;12.17;;
20776;SDS011;10548;47.504;8.248;2022-10-18T01:05:17;24.67;;;12.87;;
20776;SDS011;10548;47.504;8.248;2022-10-18T01:08:35;17.30;;;11.80;;
20776;SDS011;10548;47.504;8.248;2022-10-18T01:10:47;18.80;;;13.30;;
20776;SDS011;10548;47.504;8.248;2022-10-18T01:14:04;23.67;;;12.10;;
20776;SDS011;10548;47.504;8.248;2022-10-18T01:17:00;21.53;;;13.30;;
20776;SDS011;10548;47.504;8.248;2022-10-18T01:20:01;21.00;;;13.20;;
20776;SDS011;10548;47.504;8.248;2022-10-18T01:23:06;29.37;;;15.33;;
20776;SDS011;10548;47.504;8.248;2022-10-18T01:26:20;105.87;;;23.50;;
20776;SDS011;10548;47.504;8.248;2022-10-18T01:32:22;22.13;;;14.63;;
20776;SDS011;10548;47.504;8.248;2022-10-18T01:34:59;29.93;;;14.43;;
20776;SDS011;10548;47.504;8.248;2022-10-18T01:37:30;32.47;;;17.27;;
20776;SDS011;10548;47.504;8.248;2022-10-18T01:40:01;21.60;;;13.90;;
20776;SDS011;10548;47.504;8.248;2022-10-18T01:42:32;31.10;;;15.83;;
20776;SDS011;10548;47.504;8.248;2022-10-18T01:45:00;27.30;;;15.40;;
20776;SDS011;10548;47.504;8.248;2022-10-18T01:47:29;25.33;;;14.07;;
20776;SDS011;10548;47.504;8.248;2022-10-18T01:49:58;25.67;;;13.67;;
20776;SDS011;10548;47.504;8.248;2022-10-18T01:52:28;26.53;;;13.90;;
20776;SDS011;10548;47.504;8.248;2022-10-18T01:54:55;39.37;;;13.43;;
20776;SDS011;10548;47.504;8.248;2022-10-18T01:57:35;18.47;;;12.17;;
20776;SDS011;10548;47.504;8.248;2022-10-18T02:00:18;29.20;;;11.53;;
20776;SDS011;10548;47.504;8.248;2022-10-18T02:03:00;21.63;;;11.70;;
20776;SDS011;10548;47.504;8.248;2022-10-18T02:05:55;21.00;;;11.10;;
20776;SDS011;10548;47.504;8.248;2022-10-18T02:08:38;19.23;;;11.40;;
20776;SDS011;10548;47.504;8.248;2022-10-18T02:11:12;19.40;;;11.83;;
20776;SDS011;10548;47.504;8.248;2022-10-18T02:13:45;25.10;;;10.70;;
20776;SDS011;10548;47.504;8.248;2022-10-18T02:19:26;25.63;;;13.37;;
20776;SDS011;10548;47.504;8.248;2022-10-18T02:21:58;19.57;;;11.47;;
20776;SDS011;10548;47.504;8.248;2022-10-18T02:24:43;30.13;;;12.20;;
20776;SDS011;10548;47.504;8.248;2022-10-18T02:27:16;17.07;;;11.97;;
20776;SDS011;10548;47.504;8.248;2022-10-18T02:29:44;22.43;;;12.40;;
20776;SDS011;10548;47.504;8.248;2022-10-18T02:33:14;20.03;;;10.63;;
20776;SDS011;10548;47.504;8.248;2022-10-18T02:35:19;21.30;;;11.80;;
20776;SDS011;10548;47.504;8.248;2022-10-18T02:37:54;20.13;;;10.80;;
20776;SDS011;10548;47.504;8.248;2022-10-18T02:40:24;17.77;;;11.60;;
20776;SDS011;10548;47.504;8.248;2022-10-18T02:42:56;24.33;;;11.00;;
20776;SDS011;10548;47.504;8.248;2022-10-18T02:45:24;23.87;;;11.57;;
20776;SDS011;10548;47.504;8.248;2022-10-18T02:47:52;20.40;;;12.77;;
20776;SDS011;10548;47.504;8.248;2022-10-18T02:50:19;21.67;;;14.23;;
20776;SDS011;10548;47.504;8.248;2022-10-18T02:52:47;32.00;;;17.03;;
20776;SDS011;10548;47.504;8.248;2022-10-18T02:55:14;52.30;;;21.77;;
20776;SDS011;10548;47.504;8.248;2022-10-18T02:57:41;21.30;;;14.20;;
20776;SDS011;10548;47.504;8.248;2022-10-18T03:00:09;24.37;;;13.43;;
20776;SDS011;10548;47.504;8.248;2022-10-18T03:02:37;33.30;;;18.07;;
20776;SDS011;10548;47.504;8.248;2022-10-18T03:05:04;58.77;;;20.13;;
20776;SDS011;10548;47.504;8.248;2022-10-18T03:07:31;46.83;;;20.90;;
20776;SDS011;10548;47.504;8.248;2022-10-18T03:09:59;33.10;;;19.30;;
20776;SDS011;10548;47.504;8.248;2022-10-18T03:12:26;29.83;;;14.17;;
20776;SDS011;10548;47.504;8.248;2022-10-18T03:14:53;34.30;;;18.77;;
20776;SDS011;10548;47.504;8.248;2022-10-18T03:17:21;27.10;;;18.13;;
20776;SDS011;10548;47.504;8.248;2022-10-18T03:19:48;24.30;;;15.83;;
20776;SDS011;10548;47.504;8.248;2022-10-18T03:22:15;24.40;;;13.27;;
20776;SDS011;10548;47.504;8.248;2022-10-18T03:24:42;21.23;;;13.97;;
20776;SDS011;10548;47.504;8.248;2022-10-18T03:27:10;30.67;;;16.77;;
20776;SDS011;10548;47.504;8.248;2022-10-18T03:29:38;23.87;;;14.37;;
20776;SDS011;10548;47.504;8.248;2022-10-18T03:32:06;26.83;;;14.63;;
20776;SDS011;10548;47.504;8.248;2022-10-18T03:34:33;23.13;;;12.50;;
20776;SDS011;10548;47.504;8.248;2022-10-18T03:37:00;17.83;;;12.20;;
20776;SDS011;10548;47.504;8.248;2022-10-18T03:39:30;24.80;;;13.17;;
20776;SDS011;10548;47.504;8.248;2022-10-18T03:41:58;23.13;;;12.33;;
20776;SDS011;10548;47.504;8.248;2022-10-18T03:44:25;24.47;;;13.90;;
20776;SDS011;10548;47.504;8.248;2022-10-18T03:46:52;24.17;;;15.63;;
20776;SDS011;10548;47.504;8.248;2022-10-18T03:49:20;16.33;;;12.53;;
20776;SDS011;10548;47.504;8.248;2022-10-18T03:51:47;22.43;;;15.00;;
20776;SDS011;10548;47.504;8.248;2022-10-18T03:54:14;27.43;;;13.93;;
20776;SDS011;10548;47.504;8.248;2022-10-18T03:56:42;22.93;;;14.53;;
20776;SDS011;10548;47.504;8.248;2022-10-18T03:59:09;19.57;;;13.40;;
20776;SDS011;10548;47.504;8.248;2022-10-18T04:01:36;28.13;;;14.63;;
20776;SDS011;10548;47.504;8.248;2022-10-18T04:04:03;27.33;;;17.43;;
20776;SDS011;10548;47.504;8.248;2022-10-18T04:06:31;33.47;;;16.27;;
20776;SDS011;10548;47.504;8.248;2022-10-18T04:08:58;27.80;;;17.20;;
20776;SDS011;10548;47.504;8.248;2022-10-18T04:11:25;32.67;;;15.83;;
20776;SDS011;10548;47.504;8.248;2022-10-18T04:13:52;26.57;;;14.67;;
20776;SDS011;10548;47.504;8.248;2022-10-18T04:16:20;26.60;;;12.53;;
20776;SDS011;10548;47.504;8.248;2022-10-18T04:18:47;25.60;;;13.43;;
20776;SDS011;10548;47.504;8.248;2022-10-18T04:21:14;18.73;;;11.60;;
20776;SDS011;10548;47.504;8.248;2022-10-18T04:23:41;23.33;;;13.67;;
20776;SDS011;10548;47.504;8.248;2022-10-18T04:26:08;25.47;;;11.20;;
20776;SDS011;10548;47.504;8.248;2022-10-18T04:28:36;24.67;;;15.07;;
20776;SDS011;10548;47.504;8.248;2022-10-18T04:31:05;26.27;;;16.83;;
20776;SDS011;10548;47.504;8.248;2022-10-18T04:33:33;27.50;;;15.43;;
20776;SDS011;10548;47.504;8.248;2022-10-18T04:36:00;33.50;;;16.23;;
20776;SDS011;10548;47.504;8.248;2022-10-18T04:38:27;28.67;;;16.73;;
20776;SDS011;10548;47.504;8.248;2022-10-18T04:40:54;42.13;;;17.53;;
20776;SDS011;10548;47.504;8.248;2022-10-18T04:43:22;36.17;;;18.17;;
20776;SDS011;10548;47.504;8.248;2022-10-18T04:45:49;30.90;;;17.50;;
20776;SDS011;10548;47.504;8.248;2022-10-18T04:48:17;25.17;;;16.17;;
20776;SDS011;10548;47.504;8.248;2022-10-18T04:50:46;26.83;;;15.37;;
20776;SDS011;10548;47.504;8.248;2022-10-18T04:53:14;22.20;;;14.40;;
20776;SDS011;10548;47.504;8.248;2022-10-18T04:55:43;25.17;;;14.00;;
20776;SDS011;10548;47.504;8.248;2022-10-18T04:58:14;18.30;;;13.10;;
20776;SDS011;10548;47.504;8.248;2022-10-18T05:00:42;15.77;;;11.73;;
20776;SDS011;10548;47.504;8.248;2022-10-18T05:03:10;14.37;;;11.03;;
20776;SDS011;10548;47.504;8.248;2022-10-18T05:05:39;48.70;;;12.77;;
20776;SDS011;10548;47.504;8.248;2022-10-18T05:08:26;24.80;;;13.87;;
20776;SDS011;10548;47.504;8.248;2022-10-18T05:10:53;22.97;;;11.53;;
20776;SDS011;10548;47.504;8.248;2022-10-18T05:13:20;14.83;;;9.23;;
20776;SDS011;10548;47.504;8.248;2022-10-18T05:15:48;26.33;;;10.70;;
20776;SDS011;10548;47.504;8.248;2022-10-18T05:18:15;21.23;;;10.90;;
20776;SDS011;10548;47.504;8.248;2022-10-18T05:20:42;13.60;;;9.13;;
20776;SDS011;10548;47.504;8.248;2022-10-18T05:23:10;19.43;;;11.03;;
20776;SDS011;10548;47.504;8.248;2022-10-18T05:25:38;18.00;;;11.60;;
20776;SDS011;10548;47.504;8.248;2022-10-18T05:28:06;23.87;;;14.77;;
20776;SDS011;10548;47.504;8.248;2022-10-18T05:30:46;20.20;;;13.00;;
20776;SDS011;10548;47.504;8.248;2022-10-18T05:33:13;22.93;;;13.13;;
20776;SDS011;10548;47.504;8.248;2022-10-18T05:35:41;22.20;;;12.97;;
20776;SDS011;10548;47.504;8.248;2022-10-18T05:38:08;14.97;;;11.73;;
20776;SDS011;10548;47.504;8.248;2022-10-18T05:40:37;21.83;;;13.23;;
20776;SDS011;10548;47.504;8.248;2022-10-18T05:43:05;34.37;;;12.70;;
20776;SDS011;10548;47.504;8.248;2022-10-18T05:45:32;24.73;;;12.23;;
20776;SDS011;10548;47.504;8.248;2022-10-18T05:47:59;20.03;;;12.70;;
20776;SDS011;10548;47.504;8.248;2022-10-18T05:50:27;21.13;;;12.73;;
20776;SDS011;10548;47.504;8.248;2022-10-18T05:52:55;34.47;;;14.30;;
20776;SDS011;10548;47.504;8.248;2022-10-18T05:55:38;54.53;;;17.20;;
20776;SDS011;10548;47.504;8.248;2022-10-18T05:58:05;26.53;;;14.20;;
20776;SDS011;10548;47.504;8.248;2022-10-18T06:00:32;21.20;;;13.47;;
20776;SDS011;10548;47.504;8.248;2022-10-18T06:02:59;25.70;;;12.83;;
20776;SDS011;10548;47.504;8.248;2022-10-18T06:05:26;20.87;;;12.47;;
20776;SDS011;10548;47.504;8.248;2022-10-18T06:07:54;20.20;;;14.00;;
20776;SDS011;10548;47.504;8.248;2022-10-18T06:10:22;28.00;;;15.77;;
20776;SDS011;10548;47.504;8.248;2022-10-18T06:12:49;19.80;;;11.43;;
20776;SDS011;10548;47.504;8.248;2022-10-18T06:15:16;22.67;;;11.70;;
20776;SDS011;10548;47.504;8.248;2022-10-18T06:17:44;20.83;;;12.33;;
20776;SDS011;10548;47.504;8.248;2022-10-18T06:20:11;21.87;;;13.93;;
20776;SDS011;10548;47.504;8.248;2022-10-18T06:22:38;27.03;;;13.43;;
20776;SDS011;10548;47.504;8.248;2022-10-18T06:25:06;30.83;;;14.40;;
20776;SDS011;10548;47.504;8.248;2022-10-18T06:27:33;23.43;;;14.47;;
20776;SDS011;10548;47.504;8.248;2022-10-18T06:30:01;17.40;;;12.63;;
20776;SDS011;10548;47.504;8.248;2022-10-18T06:32:29;23.03;;;12.27;;
20776;SDS011;10548;47.504;8.248;2022-10-18T06:34:56;15.83;;;10.43;;
20776;SDS011;10548;47.504;8.248;2022-10-18T06:37:24;16.17;;;9.60;;
20776;SDS011;10548;47.504;8.248;2022-10-18T06:39:51;15.53;;;10.07;;
20776;SDS011;10548;47.504;8.248;2022-10-18T06:42:18;14.53;;;9.57;;
20776;SDS011;10548;47.504;8.248;2022-10-18T06:44:48;17.93;;;10.10;;
20776;SDS011;10548;47.504;8.248;2022-10-18T06:47:15;23.37;;;10.20;;
20776;SDS011;10548;47.504;8.248;2022-10-18T06:49:42;14.30;;;8.27;;
20776;SDS011;10548;47.504;8.248;2022-10-18T06:52:09;16.70;;;9.33;;
20776;SDS011;10548;47.504;8.248;2022-10-18T06:54:36;17.33;;;8.90;;
20776;SDS011;10548;47.504;8.248;2022-10-18T06:57:04;19.17;;;9.37;;
20776;SDS011;10548;47.504;8.248;2022-10-18T06:59:31;17.83;;;10.50;;
20776;SDS011;10548;47.504;8.248;2022-10-18T07:01:58;28.57;;;10.13;;
20776;SDS011;10548;47.504;8.248;2022-10-18T07:04:28;15.73;;;8.60;;
20776;SDS011;10548;47.504;8.248;2022-10-18T07:06:56;16.17;;;9.73;;
20776;SDS011;10548;47.504;8.248;2022-10-18T07:09:23;13.50;;;8.57;;
20776;SDS011;10548;47.504;8.248;2022-10-18T07:11:50;21.37;;;9.23;;
20776;SDS011;10548;47.504;8.248;2022-10-18T07:14:18;22.17;;;10.00;;
20776;SDS011;10548;47.504;8.248;2022-10-18T07:16:45;20.90;;;9.63;;
20776;SDS011;10548;47.504;8.248;2022-10-18T07:19:12;21.60;;;9.27;;
20776;SDS011;10548;47.504;8.248;2022-10-18T07:21:40;14.40;;;8.97;;
20776;SDS011;10548;47.504;8.248;2022-10-18T07:24:08;13.93;;;8.60;;
20776;SDS011;10548;47.504;8.248;2022-10-18T07:26:35;14.53;;;9.33;;
20776;SDS011;10548;47.504;8.248;2022-10-18T07:29:07;18.47;;;7.93;;
20776;SDS011;10548;47.504;8.248;2022-10-18T07:31:36;15.80;;;7.70;;
20776;SDS011;10548;47.504;8.248;2022-10-18T07:34:04;13.40;;;8.63;;
20776;SDS011;10548;47.504;8.248;2022-10-18T07:36:37;14.57;;;8.37;;
20776;SDS011;10548;47.504;8.248;2022-10-18T07:39:04;13.57;;;8.77;;
20776;SDS011;10548;47.504;8.248;2022-10-18T07:41:32;12.10;;;7.03;;
20776;SDS011;10548;47.504;8.248;2022-10-18T07:43:59;18.10;;;7.87;;
20776;SDS011;10548;47.504;8.248;2022-10-18T07:46:28;12.50;;;7.13;;
20776;SDS011;10548;47.504;8.248;2022-10-18T07:48:55;16.47;;;6.87;;
20776;SDS011;10548;47.504;8.248;2022-10-18T07:51:25;9.27;;;6.50;;
20776;SDS011;10548;47.504;8.248;2022-10-18T07:53:53;15.87;;;6.50;;
20776;SDS011;10548;47.504;8.248;2022-10-18T07:56:20;11.57;;;5.73;;
20776;SDS011;10548;47.504;8.248;2022-10-18T07:58:51;17.90;;;6.70;;
20776;SDS011;10548;47.504;8.248;2022-10-18T08:01:21;11.87;;;6.57;;
20776;SDS011;10548;47.504;8.248;2022-10-18T08:03:49;10.73;;;6.60;;
20776;SDS011;10548;47.504;8.248;2022-10-18T08:06:18;13.93;;;6.67;;
20776;SDS011;10548;47.504;8.248;2022-10-18T08:08:46;13.03;;;5.90;;
20776;SDS011;10548;47.504;8.248;2022-10-18T08:11:18;16.97;;;6.83;;
20776;SDS011;10548;47.504;8.248;2022-10-18T08:13:47;10.37;;;6.50;;
20776;SDS011;10548;47.504;8.248;2022-10-18T08:16:15;12.67;;;7.20;;
20776;SDS011;10548;47.504;8.248;2022-10-18T08:18:44;18.17;;;7.50;;
20776;SDS011;10548;47.504;8.248;2022-10-18T08:21:13;10.50;;;6.40;;
20776;SDS011;10548;47.504;8.248;2022-10-18T08:23:41;16.17;;;6.43;;
20776;SDS011;10548;47.504;8.248;2022-10-18T08:26:10;17.73;;;6.57;;
20776;SDS011;10548;47.504;8.248;2022-10-18T08:28:39;13.43;;;6.63;;
20776;SDS011;10548;47.504;8.248;2022-10-18T08:31:19;14.90;;;5.90;;
20776;SDS011;10548;47.504;8.248;2022-10-18T08:33:46;10.73;;;5.30;;
20776;SDS011;10548;47.504;8.248;2022-10-18T08:36:14;17.53;;;5.60;;
20776;SDS011;10548;47.504;8.248;2022-10-18T08:38:42;9.70;;;5.60;;
20776;SDS011;10548;47.504;8.248;2022-10-18T08:41:46;15.33;;;6.00;;
20776;SDS011;10548;47.504;8.248;2022-10-18T08:47:11;9.30;;;4.80;;
20776;SDS011;10548;47.504;8.248;2022-10-18T08:49:49;12.30;;;5.07;;
20776;SDS011;10548;47.504;8.248;2022-10-18T08:52:30;9.77;;;5.43;;
20776;SDS011;10548;47.504;8.248;2022-10-18T08:55:04;16.80;;;4.93;;
20776;SDS011;10548;47.504;8.248;2022-10-18T08:57:56;10.70;;;4.10;;
20776;SDS011;10548;47.504;8.248;2022-10-18T09:00:24;7.40;;;4.80;;
20776;SDS011;10548;47.504;8.248;2022-10-18T09:03:42;9.53;;;4.50;;
20776;SDS011;10548;47.504;8.248;2022-10-18T09:06:18;9.57;;;4.70;;
20776;SDS011;10548;47.504;8.248;2022-10-18T09:12:19;9.47;;;4.17;;
20776;SDS011;10548;47.504;8.248;2022-10-18T09:15:03;9.33;;;4.20;;
20776;SDS011;10548;47.504;8.248;2022-10-18T09:18:08;8.67;;;4.50;;
20776;SDS011;10548;47.504;8.248;2022-10-18T09:24:39;10.27;;;4.17;;
20776;SDS011;10548;47.504;8.248;2022-10-18T09:27:21;17.33;;;4.90;;
20776;SDS011;10548;47.504;8.248;2022-10-18T09:30:02;10.83;;;4.37;;
20776;SDS011;10548;47.504;8.248;2022-10-18T09:32:48;18.43;;;4.73;;
20776;SDS011;10548;47.504;8.248;2022-10-18T09:35:49;10.40;;;4.10;;
20776;SDS011;10548;47.504;8.248;2022-10-18T09:38:23;11.53;;;4.43;;
20776;SDS011;10548;47.504;8.248;2022-10-18T09:41:00;10.00;;;4.87;;
20776;SDS011;10548;47.504;8.248;2022-10-18T09:43:38;10.77;;;5.37;;
20776;SDS011;10548;47.504;8.248;2022-10-18T09:46:13;12.20;;;4.70;;
20776;SDS011;10548;47.504;8.248;2022-10-18T09:48:57;8.93;;;4.43;;
20776;SDS011;10548;47.504;8.248;2022-10-18T09:51:33;12.70;;;5.13;;
20776;SDS011;10548;47.504;8.248;2022-10-18T09:54:27;12.23;;;4.90;;
20776;SDS011;10548;47.504;8.248;2022-10-18T09:59:49;12.90;;;4.90;;
20776;SDS011;10548;47.504;8.248;2022-10-18T10:02:20;8.67;;;4.00;;
20776;SDS011;10548;47.504;8.248;2022-10-18T10:04:49;11.77;;;5.03;;
20776;SDS011;10548;47.504;8.248;2022-10-18T10:07:17;14.27;;;4.60;;
20776;SDS011;10548;47.504;8.248;2022-10-18T10:10:03;12.17;;;4.03;;
20776;SDS011;10548;47.504;8.248;2022-10-18T10:12:37;11.93;;;4.27;;
20776;SDS011;10548;47.504;8.248;2022-10-18T10:18:04;9.70;;;4.70;;
20776;SDS011;10548;47.504;8.248;2022-10-18T10:20:44;7.80;;;3.80;;
20776;SDS011;10548;47.504;8.248;2022-10-18T10:23:24;12.63;;;4.10;;
20776;SDS011;10548;47.504;8.248;2022-10-18T10:25:54;10.63;;;3.87;;
20776;SDS011;10548;47.504;8.248;2022-10-18T10:28:27;11.33;;;4.17;;
20776;SDS011;10548;47.504;8.248;2022-10-18T10:31:15;15.57;;;3.97;;
20776;SDS011;10548;47.504;8.248;2022-10-18T10:34:04;11.20;;;3.77;;
20776;SDS011;10548;47.504;8.248;2022-10-18T10:36:48;9.83;;;4.03;;
20776;SDS011;10548;47.504;8.248;2022-10-18T10:39:16;6.03;;;3.63;;
20776;SDS011;10548;47.504;8.248;2022-10-18T10:41:46;7.47;;;4.10;;
20776;SDS011;10548;47.504;8.248;2022-10-18T10:44:19;6.43;;;3.93;;
20776;SDS011;10548;47.504;8.248;2022-10-18T10:46:49;9.87;;;3.60;;
20776;SDS011;10548;47.504;8.248;2022-10-18T10:49:18;8.57;;;3.10;;
20776;SDS011;10548;47.504;8.248;2022-10-18T10:52:16;12.17;;;3.80;;
20776;SDS011;10548;47.504;8.248;2022-10-18T10:55:02;6.50;;;3.10;;
20776;SDS011;10548;47.504;8.248;2022-10-18T10:57:50;20.97;;;3.80;;
20776;SDS011;10548;47.504;8.248;2022-10-18T11:03:16;6.17;;;3.20;;
20776;SDS011;10548;47.504;8.248;2022-10-18T11:06:00;7.67;;;2.73;;
20776;SDS011;10548;47.504;8.248;2022-10-18T11:08:32;10.10;;;3.20;;
20776;SDS011;10548;47.504;8.248;2022-10-18T11:11:22;6.30;;;3.40;;
20776;SDS011;10548;47.504;8.248;2022-10-18T11:14:09;4.93;;;2.73;;
20776;SDS011;10548;47.504;8.248;2022-10-18T11:20:11;5.53;;;2.70;;
20776;SDS011;10548;47.504;8.248;2022-10-18T11:22:56;8.77;;;3.13;;
20776;SDS011;10548;47.504;8.248;2022-10-18T11:35:44;10.83;;;3.00;;
20776;SDS011;10548;47.504;8.248;2022-10-18T11:38:54;6.03;;;3.33;;
20776;SDS011;10548;47.504;8.248;2022-10-18T11:41:17;10.48;;;2.90;;
20776;SDS011;10548;47.504;8.248;2022-10-18T11:44:10;8.73;;;2.47;;
20776;SDS011;10548;47.504;8.248;2022-10-18T11:47:22;15.38;;;2.90;;
20776;SDS011;10548;47.504;8.248;2022-10-18T12:03:27;10.02;;;3.25;;
20776;SDS011;10548;47.504;8.248;2022-10-18T12:06:17;7.60;;;3.08;;
20776;SDS011;10548;47.504;8.248;2022-10-18T12:11:50;9.73;;;3.03;;
20776;SDS011;10548;47.504;8.248;2022-10-18T12:14:34;8.20;;;2.97;;
20776;SDS011;10548;47.504;8.248;2022-10-18T12:17:06;5.50;;;2.80;;
20776;SDS011;10548;47.504;8.248;2022-10-18T12:19:43;6.22;;;2.63;;
20776;SDS011;10548;47.504;8.248;2022-10-18T12:22:15;7.75;;;2.60;;
20776;SDS011;10548;47.504;8.248;2022-10-18T12:24:46;8.10;;;2.65;;
20776;SDS011;10548;47.504;8.248;2022-10-18T12:27:13;10.70;;;2.53;;
20776;SDS011;10548;47.504;8.248;2022-10-18T12:32:43;4.85;;;2.53;;
20776;SDS011;10548;47.504;8.248;2022-10-18T12:35:33;9.65;;;2.75;;
20776;SDS011;10548;47.504;8.248;2022-10-18T12:38:28;8.95;;;3.17;;
20776;SDS011;10548;47.504;8.248;2022-10-18T12:41:01;9.70;;;1.90;;
20776;SDS011;10548;47.504;8.248;2022-10-18T12:43:30;8.27;;;2.28;;
20776;SDS011;10548;47.504;8.248;2022-10-18T12:46:03;5.70;;;2.13;;
20776;SDS011;10548;47.504;8.248;2022-10-18T12:48:39;8.80;;;2.20;;
20776;SDS011;10548;47.504;8.248;2022-10-18T12:51:15;12.32;;;2.20;;
20776;SDS011;10548;47.504;8.248;2022-10-18T12:56:38;9.40;;;2.47;;
20776;SDS011;10548;47.504;8.248;2022-10-18T13:02:20;4.90;;;2.22;;
20776;SDS011;10548;47.504;8.248;2022-10-18T13:04:50;11.52;;;2.70;;
20776;SDS011;10548;47.504;8.248;2022-10-18T13:07:19;8.07;;;2.17;;
20776;SDS011;10548;47.504;8.248;2022-10-18T13:13:06;7.20;;;2.25;;
20776;SDS011;10548;47.504;8.248;2022-10-18T13:16:07;8.43;;;2.17;;
20776;SDS011;10548;47.504;8.248;2022-10-18T13:22:26;5.93;;;2.28;;
20776;SDS011;10548;47.504;8.248;2022-10-18T13:25:13;7.63;;;2.30;;
20776;SDS011;10548;47.504;8.248;2022-10-18T13:34:54;7.82;;;2.58;;
20776;SDS011;10548;47.504;8.248;2022-10-18T13:37:23;6.78;;;2.08;;
20776;SDS011;10548;47.504;8.248;2022-10-18T13:40:12;9.25;;;2.38;;
20776;SDS011;10548;47.504;8.248;2022-10-18T13:42:48;7.60;;;2.30;;
20776;SDS011;10548;47.504;8.248;2022-10-18T13:48:43;5.97;;;2.40;;
20776;SDS011;10548;47.504;8.248;2022-10-18T13:54:49;8.63;;;2.55;;
20776;SDS011;10548;47.504;8.248;2022-10-18T13:57:50;7.85;;;2.38;;
20776;SDS011;10548;47.504;8.248;2022-10-18T14:04:10;11.73;;;2.65;;
20776;SDS011;10548;47.504;8.248;2022-10-18T14:07:15;5.97;;;2.10;;
20776;SDS011;10548;47.504;8.248;2022-10-18T14:09:49;6.68;;;2.45;;
20776;SDS011;10548;47.504;8.248;2022-10-18T14:12:33;5.22;;;2.70;;
20776;SDS011;10548;47.504;8.248;2022-10-18T14:15:13;9.65;;;2.70;;
20776;SDS011;10548;47.504;8.248;2022-10-18T14:17:54;13.23;;;2.40;;
20776;SDS011;10548;47.504;8.248;2022-10-18T14:20:29;9.27;;;2.40;;
20776;SDS011;10548;47.504;8.248;2022-10-18T14:23:22;7.20;;;2.70;;
20776;SDS011;10548;47.504;8.248;2022-10-18T14:25:57;6.75;;;2.53;;
20776;SDS011;10548;47.504;8.248;2022-10-18T14:28:33;5.53;;;2.30;;
20776;SDS011;10548;47.504;8.248;2022-10-18T14:31:20;8.45;;;2.70;;
20776;SDS011;10548;47.504;8.248;2022-10-18T14:33:51;8.77;;;2.58;;
20776;SDS011;10548;47.504;8.248;2022-10-18T14:36:28;8.98;;;2.55;;
20776;SDS011;10548;47.504;8.248;2022-10-18T14:39:02;12.00;;;3.03;;
20776;SDS011;10548;47.504;8.248;2022-10-18T14:41:35;10.07;;;2.50;;
20776;SDS011;10548;47.504;8.248;2022-10-18T14:47:13;6.25;;;2.40;;
20776;SDS011;10548;47.504;8.248;2022-10-18T14:49:47;10.60;;;2.75;;
20776;SDS011;10548;47.504;8.248;2022-10-18T14:52:16;8.75;;;2.63;;
20776;SDS011;10548;47.504;8.248;2022-10-18T14:54:52;8.10;;;2.88;;
20776;SDS011;10548;47.504;8.248;2022-10-18T14:57:22;9.88;;;2.47;;
20776;SDS011;10548;47.504;8.248;2022-10-18T14:59:53;8.48;;;3.42;;
20776;SDS011;10548;47.504;8.248;2022-10-18T15:02:24;8.65;;;3.47;;
20776;SDS011;10548;47.504;8.248;2022-10-18T15:05:17;8.57;;;2.65;;
20776;SDS011;10548;47.504;8.248;2022-10-18T15:07:50;12.63;;;2.90;;
20776;SDS011;10548;47.504;8.248;2022-10-18T15:10:22;6.40;;;2.70;;
20776;SDS011;10548;47.504;8.248;2022-10-18T15:12:52;15.45;;;2.92;;
20776;SDS011;10548;47.504;8.248;2022-10-18T15:15:41;8.45;;;2.22;;
20776;SDS011;10548;47.504;8.248;2022-10-18T15:18:19;7.43;;;2.60;;
20776;SDS011;10548;47.504;8.248;2022-10-18T15:23:48;10.38;;;2.70;;
20776;SDS011;10548;47.504;8.248;2022-10-18T15:26:26;7.95;;;2.78;;
20776;SDS011;10548;47.504;8.248;2022-10-18T15:28:55;7.55;;;2.22;;
20776;SDS011;10548;47.504;8.248;2022-10-18T15:31:33;16.20;;;3.08;;
20776;SDS011;10548;47.504;8.248;2022-10-18T15:34:22;7.90;;;2.70;;
20776;SDS011;10548;47.504;8.248;2022-10-18T15:36:53;11.33;;;3.30;;
20776;SDS011;10548;47.504;8.248;2022-10-18T15:39:26;12.83;;;2.60;;
20776;SDS011;10548;47.504;8.248;2022-10-18T15:41:57;10.37;;;2.57;;
20776;SDS011;10548;47.504;8.248;2022-10-18T15:44:27;11.50;;;2.63;;
20776;SDS011;10548;47.504;8.248;2022-10-18T15:47:16;10.53;;;2.93;;
20776;SDS011;10548;47.504;8.248;2022-10-18T15:49:54;13.80;;;2.83;;
20776;SDS011;10548;47.504;8.248;2022-10-18T15:52:35;7.43;;;2.80;;
20776;SDS011;10548;47.504;8.248;2022-10-18T15:58:21;8.97;;;2.70;;
20776;SDS011;10548;47.504;8.248;2022-10-18T16:00:52;6.90;;;2.70;;
20776;SDS011;10548;47.504;8.248;2022-10-18T16:03:24;15.97;;;2.47;;
20776;SDS011;10548;47.504;8.248;2022-10-18T16:05:55;13.40;;;2.90;;
20776;SDS011;10548;47.504;8.248;2022-10-18T16:08:26;11.13;;;2.83;;
20776;SDS011;10548;47.504;8.248;2022-10-18T16:10:58;9.60;;;3.33;;
20776;SDS011;10548;47.504;8.248;2022-10-18T16:13:25;7.87;;;3.00;;
20776;SDS011;10548;47.504;8.248;2022-10-18T16:15:52;12.27;;;3.53;;
20776;SDS011;10548;47.504;8.248;2022-10-18T16:18:23;7.67;;;3.07;;
20776;SDS011;10548;47.504;8.248;2022-10-18T16:20:50;10.10;;;2.83;;
20776;SDS011;10548;47.504;8.248;2022-10-18T16:23:19;16.17;;;3.53;;
20776;SDS011;10548;47.504;8.248;2022-10-18T16:25:52;10.77;;;3.33;;
20776;SDS011;10548;47.504;8.248;2022-10-18T16:28:20;12.73;;;2.97;;
20776;SDS011;10548;47.504;8.248;2022-10-18T16:30:51;11.47;;;3.20;;
20776;SDS011;10548;47.504;8.248;2022-10-18T16:33:23;8.10;;;3.43;;
20776;SDS011;10548;47.504;8.248;2022-10-18T16:35:52;9.43;;;3.13;;
20776;SDS011;10548;47.504;8.248;2022-10-18T16:38:32;10.07;;;3.57;;
20776;SDS011;10548;47.504;8.248;2022-10-18T16:41:02;13.00;;;3.50;;
20776;SDS011;10548;47.504;8.248;2022-10-18T16:43:31;13.53;;;4.43;;
20776;SDS011;10548;47.504;8.248;2022-10-18T16:45:59;12.17;;;3.10;;